Wetterdaten: Woche 08.03.10 - 14.03.10 (KW10)
Datum Zeit Temperatur Luftfeuchte Luftdruck Niederschlag Wind Richtung Sonnenschein Solar Taupunkt Windchill Windben
08.03.2010 00:00 -4.5 C 59 % 1023.0 hPa 0.0 l/m 4.5 km/h (1 Bft) O 0.00 h 0 W/m -11.3 C -5.8 C 9.7 km/h (2 Bft)
08.03.2010 01:00 -4.7 C 59 % 1022.9 hPa 0.0 l/m 5.6 km/h (1 Bft) N-NO 0.00 h 0 W/m -11.4 C -6.8 C 11.4 km/h (2 Bft)
08.03.2010 02:00 -5.1 C 59 % 1022.6 hPa 0.0 l/m 6.8 km/h (2 Bft) N-NO 0.00 h 0 W/m -11.8 C -7.8 C 13.6 km/h (3 Bft)
08.03.2010 03:00 -5.3 C 58 % 1022.2 hPa 0.0 l/m 6.7 km/h (2 Bft) N-NO 0.00 h 0 W/m -12.2 C -7.9 C 14.7 km/h (3 Bft)
08.03.2010 04:00 -5.4 C 58 % 1021.9 hPa 0.0 l/m 6.0 km/h (2 Bft) N-NO 0.00 h 0 W/m -12.3 C -7.7 C 12.3 km/h (3 Bft)
08.03.2010 05:00 -5.6 C 58 % 1021.6 hPa 0.0 l/m 4.1 km/h (1 Bft) N-NO 0.00 h 0 W/m -12.5 C -6.7 C 9.6 km/h (2 Bft)
08.03.2010 06:00 -5.6 C 58 % 1021.5 hPa 0.0 l/m 4.6 km/h (1 Bft) N-NO 0.00 h 6 W/m -12.6 C -7.2 C 10.0 km/h (2 Bft)
08.03.2010 07:00 -5.5 C 56 % 1021.6 hPa 0.0 l/m 5.1 km/h (1 Bft) N-NO 0.30 h 43 W/m -12.8 C -7.2 C 11.3 km/h (2 Bft)
08.03.2010 08:00 -4.0 C 52 % 1021.8 hPa 0.0 l/m 5.7 km/h (1 Bft) N-NO 1.00 h 187 W/m -12.3 C -6.0 C 11.6 km/h (2 Bft)
08.03.2010 09:00 -2.4 C 47 % 1021.5 hPa 0.0 l/m 6.3 km/h (2 Bft) O 1.00 h 346 W/m -12.2 C -4.5 C 13.0 km/h (3 Bft)
08.03.2010 10:00 -1.2 C 39 % 1021.1 hPa 0.0 l/m 9.3 km/h (2 Bft) O-SO 1.00 h 482 W/m -13.3 C -4.4 C 18.0 km/h (3 Bft)
08.03.2010 11:00 0.1 C 36 % 1020.5 hPa 0.0 l/m 8.9 km/h (2 Bft) O-SO 1.00 h 574 W/m -13.2 C -2.7 C 17.7 km/h (3 Bft)
08.03.2010 12:00 1.8 C 33 % 1020.0 hPa 0.0 l/m 7.6 km/h (2 Bft) NO 1.00 h 610 W/m -12.7 C -0.2 C 16.4 km/h (3 Bft)
08.03.2010 13:00 2.0 C 32 % 1019.3 hPa 0.0 l/m 9.4 km/h (2 Bft) N-NO 1.00 h 596 W/m -12.9 C -0.6 C 19.7 km/h (3 Bft)
08.03.2010 14:00 2.0 C 33 % 1018.8 hPa 0.0 l/m 7.6 km/h (2 Bft) O 1.00 h 521 W/m -12.7 C -0.1 C 15.3 km/h (3 Bft)
08.03.2010 15:00 2.4 C 34 % 1018.5 hPa 0.0 l/m 7.1 km/h (2 Bft) O 1.00 h 396 W/m -11.6 C 0.6 C 14.8 km/h (3 Bft)
08.03.2010 16:00 1.5 C 38 % 1018.1 hPa 0.0 l/m 8.0 km/h (2 Bft) O-SO 1.00 h 248 W/m -11.3 C -0.8 C 16.6 km/h (3 Bft)
08.03.2010 17:00 0.3 C 39 % 1018.2 hPa 0.0 l/m 8.1 km/h (2 Bft) N-NO 0.32 h 67 W/m -11.9 C -2.1 C 17.2 km/h (3 Bft)
08.03.2010 18:00 -1.1 C 45 % 1019.0 hPa 0.0 l/m 5.8 km/h (2 Bft) NO 0.03 h 11 W/m -11.5 C -2.9 C 12.8 km/h (3 Bft)
08.03.2010 19:00 -1.8 C 49 % 1019.2 hPa 0.0 l/m 4.7 km/h (1 Bft) N-NO 0.00 h 0 W/m -11.2 C -3.2 C 9.9 km/h (2 Bft)
08.03.2010 20:00 -2.3 C 48 % 1019.1 hPa 0.0 l/m 7.9 km/h (2 Bft) O-SO 0.00 h 0 W/m -11.7 C -5.0 C 15.6 km/h (3 Bft)
08.03.2010 21:00 -2.8 C 50 % 1018.5 hPa 0.0 l/m 5.7 km/h (1 Bft) N-NO 0.00 h 0 W/m -11.7 C -4.5 C 13.2 km/h (3 Bft)
08.03.2010 22:00 -3.5 C 55 % 1018.4 hPa 0.0 l/m 6.0 km/h (2 Bft) NO 0.00 h 0 W/m -11.1 C -5.7 C 12.2 km/h (2 Bft)
08.03.2010 23:00 -3.9 C 60 % 1017.8 hPa 0.0 l/m 7.3 km/h (2 Bft) NO 0.00 h 0 W/m -10.6 C -6.6 C 14.6 km/h (3 Bft)
09.03.2010 00:00 -4.3 C 59 % 1017.2 hPa 0.0 l/m 6.2 km/h (2 Bft) N-NO 0.00 h 0 W/m -11.0 C -6.6 C 12.5 km/h (3 Bft)
09.03.2010 01:00 -4.7 C 59 % 1016.8 hPa 0.0 l/m 6.8 km/h (2 Bft) N 0.00 h 0 W/m -11.4 C -7.3 C 13.2 km/h (3 Bft)
09.03.2010 02:00 -4.8 C 59 % 1016.3 hPa 0.0 l/m 5.5 km/h (1 Bft) NO 0.00 h 0 W/m -11.6 C -6.9 C 11.3 km/h (2 Bft)
09.03.2010 03:00 -5.1 C 60 % 1015.8 hPa 0.0 l/m 6.1 km/h (2 Bft) N-NO 0.00 h 0 W/m -11.6 C -7.3 C 12.5 km/h (3 Bft)
09.03.2010 04:00 -5.3 C 61 % 1015.8 hPa 0.0 l/m 4.1 km/h (1 Bft) N-NO 0.00 h 0 W/m -11.6 C -6.3 C 8.7 km/h (2 Bft)
09.03.2010 05:00 -5.6 C 63 % 1015.9 hPa 0.0 l/m 5.6 km/h (1 Bft) N-NO 0.00 h 0 W/m -11.6 C -7.8 C 12.6 km/h (3 Bft)
09.03.2010 06:00 -5.9 C 63 % 1016.3 hPa 0.0 l/m 5.1 km/h (1 Bft) NO 0.00 h 6 W/m -11.8 C -7.7 C 11.0 km/h (2 Bft)
09.03.2010 07:00 -6.0 C 64 % 1017.0 hPa 0.0 l/m 4.7 km/h (1 Bft) O-SO 0.03 h 34 W/m -11.8 C -7.7 C 9.6 km/h (2 Bft)
09.03.2010 08:00 -5.7 C 62 % 1017.3 hPa 0.0 l/m 8.6 km/h (2 Bft) O 0.55 h 152 W/m -11.8 C -9.2 C 17.0 km/h (3 Bft)
09.03.2010 09:00 -4.4 C 57 % 1017.3 hPa 0.0 l/m 8.6 km/h (2 Bft) O-SO 0.93 h 333 W/m -11.5 C -7.7 C 16.4 km/h (3 Bft)
09.03.2010 10:00 -3.5 C 52 % 1017.1 hPa 0.0 l/m 9.9 km/h (2 Bft) O 0.80 h 408 W/m -12.0 C -7.2 C 19.6 km/h (3 Bft)
09.03.2010 11:00 -3.1 C 50 % 1016.6 hPa 0.0 l/m 10.5 km/h (2 Bft) O-SO 0.18 h 250 W/m -12.1 C -6.8 C 20.7 km/h (4 Bft)
09.03.2010 12:00 -3.2 C 52 % 1016.9 hPa 0.0 l/m 9.7 km/h (2 Bft) O 0.02 h 273 W/m -11.6 C -6.8 C 20.1 km/h (4 Bft)
09.03.2010 13:00 -2.8 C 53 % 1016.7 hPa 0.0 l/m 8.2 km/h (2 Bft) O-SO 0.00 h 233 W/m -10.9 C -5.7 C 17.1 km/h (3 Bft)
09.03.2010 14:00 -2.1 C 52 % 1016.6 hPa 0.0 l/m 8.8 km/h (2 Bft) NO 0.03 h 222 W/m -10.6 C -5.0 C 17.5 km/h (3 Bft)
09.03.2010 15:00 -1.5 C 51 % 1016.3 hPa 0.0 l/m 8.0 km/h (2 Bft) O-SO 0.00 h 172 W/m -10.3 C -4.2 C 16.4 km/h (3 Bft)
09.03.2010 16:00 -0.9 C 48 % 1016.4 hPa 0.0 l/m 9.7 km/h (2 Bft) O 0.23 h 132 W/m -10.5 C -4.1 C 20.2 km/h (4 Bft)
09.03.2010 17:00 -0.7 C 46 % 1016.2 hPa 0.0 l/m 11.6 km/h (2 Bft) O-SO 0.00 h 68 W/m -10.7 C -4.4 C 23.6 km/h (4 Bft)
09.03.2010 18:00 -0.8 C 45 % 1016.6 hPa 0.0 l/m 7.5 km/h (2 Bft) O 0.08 h 14 W/m -11.2 C -3.2 C 16.3 km/h (3 Bft)
09.03.2010 19:00 -1.1 C 47 % 1017.1 hPa 0.0 l/m 5.5 km/h (1 Bft) NO 0.00 h 0 W/m -10.9 C -2.7 C 12.3 km/h (3 Bft)
09.03.2010 20:00 -1.1 C 48 % 1017.1 hPa 0.0 l/m 5.2 km/h (1 Bft) NO 0.00 h 0 W/m -10.6 C -2.5 C 11.3 km/h (2 Bft)
09.03.2010 21:00 -1.1 C 48 % 1017.0 hPa 0.0 l/m 6.0 km/h (2 Bft) O 0.00 h 0 W/m -10.8 C -3.0 C 12.7 km/h (3 Bft)
09.03.2010 22:00 -1.3 C 47 % 1016.7 hPa 0.0 l/m 6.3 km/h (2 Bft) O 0.00 h 0 W/m -11.1 C -3.3 C 13.2 km/h (3 Bft)
09.03.2010 23:00 -1.6 C 48 % 1016.1 hPa 0.0 l/m 6.6 km/h (2 Bft) NO 0.00 h 0 W/m -11.2 C -3.8 C 14.0 km/h (3 Bft)
10.03.2010 00:00 -1.9 C 48 % 1015.6 hPa 0.0 l/m 7.1 km/h (2 Bft) NO 0.00 h 0 W/m -11.5 C -4.3 C 14.8 km/h (3 Bft)
10.03.2010 01:00 -2.2 C 49 % 1015.1 hPa 0.0 l/m 5.7 km/h (1 Bft) N-NO 0.00 h 0 W/m -11.6 C -4.0 C 12.7 km/h (3 Bft)
10.03.2010 02:00 -2.3 C 49 % 1014.6 hPa 0.0 l/m 5.5 km/h (1 Bft) N-NO 0.00 h 0 W/m -11.5 C -4.1 C 12.5 km/h (3 Bft)
10.03.2010 03:00 -2.5 C 49 % 1014.0 hPa 0.0 l/m 5.0 km/h (1 Bft) O-SO 0.00 h 0 W/m -11.7 C -4.0 C 11.1 km/h (2 Bft)
10.03.2010 04:00 -2.6 C 49 % 1014.0 hPa 0.0 l/m 6.5 km/h (2 Bft) O 0.00 h 0 W/m -11.8 C -4.9 C 13.2 km/h (3 Bft)
10.03.2010 05:00 -2.8 C 50 % 1013.9 hPa 0.0 l/m 5.6 km/h (1 Bft) N-NO 0.00 h 0 W/m -11.8 C -4.5 C 12.1 km/h (2 Bft)
10.03.2010 06:00 -3.1 C 50 % 1013.8 hPa 0.0 l/m 4.5 km/h (1 Bft) N-NO 0.00 h 5 W/m -11.9 C -4.5 C 9.6 km/h (2 Bft)
10.03.2010 07:00 -3.3 C 52 % 1014.0 hPa 0.0 l/m 5.3 km/h (1 Bft) N 0.00 h 21 W/m -11.8 C -4.8 C 11.0 km/h (2 Bft)
10.03.2010 08:00 -3.1 C 52 % 1014.2 hPa 0.0 l/m 5.1 km/h (1 Bft) N-NO 0.00 h 79 W/m -11.4 C -4.7 C 11.4 km/h (2 Bft)
10.03.2010 09:00 -2.8 C 53 % 1014.4 hPa 0.0 l/m 5.4 km/h (1 Bft) O 0.00 h 132 W/m -11.1 C -4.5 C 11.9 km/h (2 Bft)
10.03.2010 10:00 -2.5 C 52 % 1014.7 hPa 0.0 l/m 5.3 km/h (1 Bft) O 0.00 h 172 W/m -11.0 C -4.1 C 11.4 km/h (2 Bft)
10.03.2010 11:00 -2.0 C 50 % 1014.6 hPa 0.0 l/m 5.6 km/h (1 Bft) O-SO 0.23 h 255 W/m -11.0 C -3.7 C 12.2 km/h (2 Bft)
10.03.2010 12:00 -0.8 C 47 % 1014.4 hPa 0.0 l/m 5.1 km/h (1 Bft) O 0.35 h 328 W/m -10.7 C -2.3 C 10.6 km/h (2 Bft)
10.03.2010 13:00 -0.5 C 47 % 1013.7 hPa 0.0 l/m 6.1 km/h (2 Bft) O-SO 0.02 h 236 W/m -10.5 C -2.5 C 12.1 km/h (2 Bft)
10.03.2010 14:00 0.0 C 47 % 1013.3 hPa 0.0 l/m 5.8 km/h (2 Bft) O-SO 0.00 h 209 W/m -10.0 C -1.5 C 10.3 km/h (2 Bft)
10.03.2010 15:00 0.8 C 45 % 1013.1 hPa 0.0 l/m 5.0 km/h (1 Bft) O-SO 0.05 h 184 W/m -9.7 C -0.6 C 8.5 km/h (2 Bft)
10.03.2010 16:00 1.2 C 46 % 1012.9 hPa 0.0 l/m 3.6 km/h (1 Bft) O-SO 0.00 h 107 W/m -9.0 C 0.4 C 6.5 km/h (2 Bft)
10.03.2010 17:00 0.9 C 53 % 1012.9 hPa 0.0 l/m 2.0 km/h (1 Bft) SO 0.00 h 18 W/m -7.7 C 0.7 C 3.9 km/h (1 Bft)
10.03.2010 18:00 -0.1 C 56 % 1013.1 hPa 0.0 l/m 1.3 km/h (1 Bft) SO 0.00 h 5 W/m -7.9 C -0.1 C 3.0 km/h (1 Bft)
10.03.2010 19:00 -0.4 C 57 % 1013.6 hPa 0.0 l/m 0.6 km/h (0 Bft) O-SO 0.00 h 0 W/m -7.9 C -0.4 C 1.7 km/h (1 Bft)
10.03.2010 20:00 -0.6 C 58 % 1013.3 hPa 0.0 l/m 0.1 km/h (0 Bft) O-SO 0.00 h 0 W/m -7.8 C -0.6 C 0.5 km/h (0 Bft)
10.03.2010 21:00 -0.4 C 61 % 1013.3 hPa 0.0 l/m 2.3 km/h (1 Bft) O 0.00 h 0 W/m -7.0 C -0.9 C 5.2 km/h (1 Bft)
10.03.2010 22:00 -0.5 C 76 % 1013.5 hPa 0.0 l/m 3.6 km/h (1 Bft) N-NO 0.00 h 0 W/m -4.1 C -1.3 C 7.4 km/h (2 Bft)
10.03.2010 23:00 -1.2 C 84 % 1013.2 hPa 0.4 l/m 0.0 km/h (0 Bft) N 0.00 h 0 W/m -3.5 C -1.2 C 0.2 km/h (0 Bft)
11.03.2010 00:00 -1.4 C 86 % 1012.8 hPa 0.8 l/m 1.1 km/h (1 Bft) N-NO 0.00 h 0 W/m -3.4 C -1.4 C 2.8 km/h (1 Bft)
11.03.2010 01:00 -1.6 C 87 % 1012.9 hPa 0.4 l/m 0.1 km/h (0 Bft) NO 0.00 h 0 W/m -3.4 C -1.6 C 0.6 km/h (0 Bft)
11.03.2010 02:00 -1.8 C 88 % 1012.8 hPa 0.6 l/m 0.3 km/h (0 Bft) NO 0.00 h 0 W/m -3.5 C -1.8 C 1.0 km/h (0 Bft)
11.03.2010 03:00 -2.0 C 88 % 1012.5 hPa 0.4 l/m 0.0 km/h (0 Bft) N 0.00 h 0 W/m -3.7 C -2.0 C 0.3 km/h (0 Bft)
11.03.2010 04:00 -2.3 C 88 % 1012.6 hPa 0.4 l/m 0.0 km/h (0 Bft) N 0.00 h 0 W/m -3.9 C -2.3 C 0.0 km/h (0 Bft)
11.03.2010 05:00 -2.4 C 89 % 1012.8 hPa 0.2 l/m 0.0 km/h (0 Bft) N 0.00 h 0 W/m -4.0 C -2.4 C 0.0 km/h (0 Bft)
11.03.2010 06:00 -2.6 C 89 % 1013.1 hPa 0.4 l/m 0.0 km/h (0 Bft) N 0.00 h 0 W/m -4.1 C -2.6 C 0.0 km/h (0 Bft)
11.03.2010 07:00 -2.7 C 89 % 1013.5 hPa 0.0 l/m 0.0 km/h (0 Bft) N 0.00 h 7 W/m -4.2 C -2.7 C 0.0 km/h (0 Bft)
11.03.2010 08:00 -2.2 C 89 % 1013.9 hPa 0.4 l/m 0.5 km/h (0 Bft) N-NW 0.00 h 19 W/m -3.8 C -2.2 C 1.6 km/h (1 Bft)
11.03.2010 09:00 -1.4 C 87 % 1014.0 hPa 0.0 l/m 0.1 km/h (0 Bft) N-NW 0.00 h 33 W/m -3.2 C -1.4 C 0.9 km/h (0 Bft)
11.03.2010 10:00 -0.2 C 81 % 1014.1 hPa 0.0 l/m 0.5 km/h (0 Bft) N-NW 0.00 h 45 W/m -3.0 C -0.2 C 1.4 km/h (1 Bft)
11.03.2010 11:00 0.2 C 78 % 1014.1 hPa 0.0 l/m 1.3 km/h (1 Bft) N-NW 0.00 h 119 W/m -3.2 C 0.2 C 3.1 km/h (1 Bft)
11.03.2010 12:00 0.1 C 81 % 1014.3 hPa 0.4 l/m 0.0 km/h (0 Bft) N 0.00 h 149 W/m -2.8 C 0.1 C 0.1 km/h (0 Bft)
11.03.2010 13:00 -0.4 C 85 % 1014.4 hPa 0.6 l/m 0.3 km/h (0 Bft) O-NO 0.00 h 134 W/m -2.7 C -0.4 C 1.0 km/h (0 Bft)
11.03.2010 14:00 0.0 C 86 % 1014.2 hPa 0.4 l/m 0.1 km/h (0 Bft) O-NO 0.00 h 165 W/m -2.0 C 0.0 C 1.1 km/h (1 Bft)
11.03.2010 15:00 0.2 C 85 % 1014.3 hPa 0.2 l/m 1.4 km/h (1 Bft) NW 0.00 h 178 W/m -2.0 C 0.2 C 3.2 km/h (1 Bft)
11.03.2010 16:00 0.2 C 84 % 1014.5 hPa 0.0 l/m 0.6 km/h (0 Bft) NW 0.00 h 130 W/m -2.1 C 0.2 C 2.1 km/h (1 Bft)
11.03.2010 17:00 -0.2 C 83 % 1014.9 hPa 0.0 l/m 0.7 km/h (0 Bft) NW 0.00 h 42 W/m -2.7 C -0.2 C 2.2 km/h (1 Bft)
11.03.2010 18:00 -0.7 C 86 % 1015.8 hPa 0.0 l/m 0.5 km/h (0 Bft) NW 0.00 h 8 W/m -2.8 C -0.7 C 1.9 km/h (1 Bft)
11.03.2010 19:00 -1.3 C 88 % 1016.5 hPa 0.0 l/m 0.8 km/h (0 Bft) NW 0.00 h 0 W/m -3.0 C -1.3 C 2.4 km/h (1 Bft)
11.03.2010 20:00 -1.5 C 89 % 1016.8 hPa 0.0 l/m 0.0 km/h (0 Bft) N 0.00 h 0 W/m -3.1 C -1.5 C 0.5 km/h (0 Bft)
11.03.2010 21:00 -1.9 C 89 % 1017.1 hPa 0.0 l/m 0.2 km/h (0 Bft) NW 0.00 h 0 W/m -3.4 C -1.9 C 0.7 km/h (0 Bft)
11.03.2010 22:00 -2.1 C 91 % 1017.2 hPa 0.0 l/m 0.0 km/h (0 Bft) N 0.00 h 0 W/m -3.3 C -2.1 C 0.3 km/h (0 Bft)
11.03.2010 23:00 -2.5 C 91 % 1017.3 hPa 0.0 l/m 0.5 km/h (0 Bft) NW 0.00 h 0 W/m -3.8 C -2.5 C 1.2 km/h (1 Bft)
12.03.2010 00:00 -3.2 C 91 % 1017.5 hPa 0.0 l/m 1.7 km/h (1 Bft) NW 0.00 h 0 W/m -4.4 C -3.2 C 2.9 km/h (1 Bft)
12.03.2010 01:00 -3.2 C 92 % 1017.8 hPa 0.0 l/m 0.4 km/h (0 Bft) NW 0.00 h 0 W/m -4.3 C -3.2 C 0.9 km/h (0 Bft)
12.03.2010 02:00 -2.8 C 93 % 1017.7 hPa 0.0 l/m 0.0 km/h (0 Bft) N 0.00 h 0 W/m -3.8 C -2.8 C 0.1 km/h (0 Bft)
12.03.2010 03:00 -2.7 C 93 % 1017.8 hPa 0.0 l/m 0.0 km/h (0 Bft) NW 0.00 h 0 W/m -3.6 C -2.7 C 0.2 km/h (0 Bft)
12.03.2010 04:00 -2.7 C 93 % 1017.9 hPa 0.0 l/m 0.3 km/h (0 Bft) NW 0.00 h 0 W/m -3.7 C -2.7 C 1.6 km/h (1 Bft)
12.03.2010 05:00 -2.8 C 93 % 1018.3 hPa 0.0 l/m 0.1 km/h (0 Bft) NW 0.00 h 0 W/m -3.8 C -2.8 C 0.8 km/h (0 Bft)
12.03.2010 06:00 -3.4 C 91 % 1018.8 hPa 0.0 l/m 0.7 km/h (0 Bft) NW 0.00 h 5 W/m -4.6 C -3.4 C 2.0 km/h (1 Bft)
12.03.2010 07:00 -4.2 C 89 % 1019.5 hPa 0.0 l/m 0.9 km/h (0 Bft) NW 0.00 h 21 W/m -5.6 C -4.2 C 2.3 km/h (1 Bft)
12.03.2010 08:00 -3.4 C 89 % 1020.0 hPa 0.0 l/m 0.4 km/h (0 Bft) NW 0.00 h 55 W/m -5.0 C -3.4 C 1.3 km/h (1 Bft)
12.03.2010 09:00 -2.8 C 85 % 1020.6 hPa 0.0 l/m 2.4 km/h (1 Bft) NW 0.00 h 114 W/m -5.0 C -2.9 C 4.4 km/h (1 Bft)
12.03.2010 10:00 -1.9 C 81 % 1020.6 hPa 0.0 l/m 1.8 km/h (1 Bft) NW 0.00 h 177 W/m -4.8 C -1.9 C 3.6 km/h (1 Bft)
12.03.2010 11:00 0.1 C 75 % 1020.5 hPa 0.0 l/m 0.9 km/h (0 Bft) NW 0.30 h 318 W/m -3.8 C 0.1 C 2.6 km/h (1 Bft)
12.03.2010 12:00 0.7 C 71 % 1020.4 hPa 0.0 l/m 1.8 km/h (1 Bft) W-NW 0.72 h 376 W/m -3.9 C 0.6 C 3.7 km/h (1 Bft)
12.03.2010 13:00 2.5 C 65 % 1019.9 hPa 0.0 l/m 2.6 km/h (1 Bft) W-NW 0.93 h 582 W/m -3.4 C 2.3 C 4.8 km/h (1 Bft)
12.03.2010 14:00 3.0 C 64 % 1019.6 hPa 0.0 l/m 2.2 km/h (1 Bft) W-NW 1.00 h 509 W/m -3.1 C 2.9 C 4.2 km/h (1 Bft)
12.03.2010 15:00 4.1 C 61 % 1019.4 hPa 0.0 l/m 1.1 km/h (1 Bft) W-NW 1.00 h 413 W/m -2.7 C 4.1 C 2.9 km/h (1 Bft)
12.03.2010 16:00 4.1 C 60 % 1019.2 hPa 0.0 l/m 2.3 km/h (1 Bft) W-NW 1.00 h 264 W/m -2.8 C 4.0 C 4.1 km/h (1 Bft)
12.03.2010 17:00 3.0 C 61 % 1019.5 hPa 0.0 l/m 3.4 km/h (1 Bft) W-NW 0.28 h 77 W/m -3.8 C 2.8 C 5.1 km/h (1 Bft)
12.03.2010 18:00 1.6 C 68 % 1020.3 hPa 0.0 l/m 0.2 km/h (0 Bft) W-NW 0.08 h 15 W/m -3.8 C 1.6 C 0.6 km/h (0 Bft)
12.03.2010 19:00 -0.8 C 75 % 1021.2 hPa 0.0 l/m 2.6 km/h (1 Bft) W-NW 0.00 h 0 W/m -4.6 C -0.9 C 3.9 km/h (1 Bft)
12.03.2010 20:00 -2.3 C 80 % 1021.8 hPa 0.0 l/m 1.9 km/h (1 Bft) O-SO 0.00 h 0 W/m -5.2 C -2.3 C 2.8 km/h (1 Bft)
12.03.2010 21:00 -3.4 C 82 % 1022.6 hPa 0.0 l/m 2.8 km/h (1 Bft) O-SO 0.00 h 0 W/m -6.0 C -3.7 C 4.0 km/h (1 Bft)
12.03.2010 22:00 -4.2 C 84 % 1023.1 hPa 0.0 l/m 2.1 km/h (1 Bft) O-SO 0.00 h 0 W/m -6.5 C -4.3 C 3.2 km/h (1 Bft)
12.03.2010 23:00 -4.7 C 85 % 1023.4 hPa 0.0 l/m 2.8 km/h (1 Bft) O-SO 0.00 h 0 W/m -6.8 C -4.7 C 4.1 km/h (1 Bft)
13.03.2010 00:00 -5.4 C 86 % 1023.5 hPa 0.0 l/m 3.3 km/h (1 Bft) O 0.00 h 0 W/m -7.4 C -5.6 C 4.5 km/h (1 Bft)
13.03.2010 01:00 -6.0 C 87 % 1023.8 hPa 0.0 l/m 3.1 km/h (1 Bft) O 0.00 h 0 W/m -7.8 C -6.2 C 4.1 km/h (1 Bft)
13.03.2010 02:00 -6.4 C 88 % 1024.0 hPa 0.0 l/m 1.4 km/h (1 Bft) O 0.00 h 0 W/m -8.1 C -6.4 C 2.6 km/h (1 Bft)
13.03.2010 03:00 -6.8 C 88 % 1024.3 hPa 0.0 l/m 1.9 km/h (1 Bft) O 0.00 h 0 W/m -8.5 C -6.9 C 3.2 km/h (1 Bft)
13.03.2010 04:00 -7.3 C 88 % 1024.5 hPa 0.0 l/m 2.1 km/h (1 Bft) O 0.00 h 0 W/m -8.9 C -7.3 C 3.2 km/h (1 Bft)
13.03.2010 05:00 -6.9 C 90 % 1024.9 hPa 0.0 l/m 2.9 km/h (1 Bft) O-SO 0.00 h 0 W/m -8.4 C -7.7 C 4.3 km/h (1 Bft)
13.03.2010 06:00 -6.6 C 90 % 1025.3 hPa 0.0 l/m 1.0 km/h (0 Bft) O-SO 0.00 h 5 W/m -8.0 C -6.6 C 1.9 km/h (1 Bft)
13.03.2010 07:00 -6.0 C 91 % 1026.0 hPa 0.0 l/m 0.3 km/h (0 Bft) O-SO 0.00 h 27 W/m -7.2 C -6.0 C 0.8 km/h (0 Bft)
13.03.2010 08:00 -4.8 C 91 % 1026.8 hPa 0.0 l/m 0.8 km/h (0 Bft) SO 0.00 h 78 W/m -6.0 C -4.8 C 2.2 km/h (1 Bft)
13.03.2010 09:00 -3.6 C 90 % 1027.2 hPa 0.0 l/m 1.4 km/h (1 Bft) SO 0.00 h 140 W/m -5.1 C -3.7 C 2.7 km/h (1 Bft)
13.03.2010 10:00 -2.4 C 86 % 1027.3 hPa 0.0 l/m 3.8 km/h (1 Bft) O-SO 0.00 h 206 W/m -4.4 C -3.2 C 5.2 km/h (1 Bft)
13.03.2010 11:00 -0.9 C 81 % 1027.3 hPa 0.0 l/m 0.8 km/h (0 Bft) O-SO 0.03 h 289 W/m -3.7 C -0.9 C 2.2 km/h (1 Bft)
13.03.2010 12:00 1.4 C 73 % 1027.2 hPa 0.0 l/m 0.6 km/h (0 Bft) O-SO 1.00 h 420 W/m -2.9 C 1.4 C 1.6 km/h (1 Bft)
13.03.2010 13:00 3.3 C 66 % 1026.9 hPa 0.0 l/m 1.9 km/h (1 Bft) N-NW 0.70 h 363 W/m -2.5 C 3.2 C 3.6 km/h (1 Bft)
13.03.2010 14:00 4.7 C 61 % 1026.5 hPa 0.0 l/m 0.9 km/h (0 Bft) O-SO 0.63 h 321 W/m -2.1 C 4.7 C 2.2 km/h (1 Bft)
13.03.2010 15:00 4.6 C 62 % 1026.4 hPa 0.0 l/m 0.6 km/h (0 Bft) O-SO 0.18 h 214 W/m -2.1 C 4.6 C 1.5 km/h (1 Bft)
13.03.2010 16:00 4.8 C 61 % 1026.4 hPa 0.0 l/m 0.4 km/h (0 Bft) W-SW 0.10 h 123 W/m -2.0 C 4.8 C 0.9 km/h (0 Bft)
13.03.2010 17:00 4.3 C 62 % 1026.5 hPa 0.0 l/m 1.3 km/h (1 Bft) SO 0.00 h 45 W/m -2.3 C 4.3 C 2.5 km/h (1 Bft)
13.03.2010 18:00 3.8 C 66 % 1027.0 hPa 0.0 l/m 0.5 km/h (0 Bft) SO 0.00 h 8 W/m -1.9 C 3.8 C 1.2 km/h (1 Bft)
13.03.2010 19:00 2.8 C 72 % 1027.5 hPa 0.0 l/m 0.1 km/h (0 Bft) SO 0.00 h 0 W/m -1.6 C 2.8 C 0.6 km/h (0 Bft)
13.03.2010 20:00 2.3 C 76 % 1027.8 hPa 0.0 l/m 0.2 km/h (0 Bft) SO 0.00 h 0 W/m -1.4 C 2.3 C 0.5 km/h (0 Bft)
13.03.2010 21:00 1.7 C 79 % 1027.9 hPa 0.0 l/m 0.4 km/h (0 Bft) SO 0.00 h 0 W/m -1.6 C 1.7 C 0.8 km/h (0 Bft)
13.03.2010 22:00 1.6 C 80 % 1027.9 hPa 0.0 l/m 0.3 km/h (0 Bft) SO 0.00 h 0 W/m -1.5 C 1.6 C 1.2 km/h (1 Bft)
13.03.2010 23:00 1.5 C 81 % 1027.8 hPa 0.0 l/m 0.1 km/h (0 Bft) SO 0.00 h 0 W/m -1.5 C 1.5 C 0.5 km/h (0 Bft)
14.03.2010 00:00 1.2 C 82 % 1027.5 hPa 0.0 l/m 0.2 km/h (0 Bft) SO 0.00 h 0 W/m -1.5 C 1.2 C 0.5 km/h (0 Bft)
14.03.2010 01:00 1.0 C 83 % 1027.2 hPa 0.0 l/m 0.3 km/h (0 Bft) SO 0.00 h 0 W/m -1.6 C 1.0 C 1.0 km/h (0 Bft)
14.03.2010 02:00 0.5 C 85 % 1027.1 hPa 0.0 l/m 0.0 km/h (0 Bft) SO 0.00 h 0 W/m -1.8 C 0.5 C 0.4 km/h (0 Bft)
14.03.2010 03:00 0.0 C 85 % 1026.9 hPa 0.0 l/m 0.0 km/h (0 Bft) SO 0.00 h 0 W/m -2.2 C 0.0 C 0.5 km/h (0 Bft)
14.03.2010 04:00 -0.2 C 84 % 1026.8 hPa 0.0 l/m 0.3 km/h (0 Bft) SO 0.00 h 0 W/m -2.5 C -0.2 C 1.1 km/h (1 Bft)
14.03.2010 05:00 -0.4 C 84 % 1026.8 hPa 0.0 l/m 0.5 km/h (0 Bft) SO 0.00 h 0 W/m -2.7 C -0.4 C 1.7 km/h (1 Bft)
14.03.2010 06:00 -0.4 C 83 % 1027.0 hPa 0.0 l/m 1.0 km/h (0 Bft) S-SO 0.00 h 5 W/m -2.9 C -0.4 C 2.5 km/h (1 Bft)
14.03.2010 07:00 -0.4 C 82 % 1027.2 hPa 0.0 l/m 3.0 km/h (1 Bft) SO 0.00 h 20 W/m -3.0 C -0.8 C 5.1 km/h (1 Bft)
14.03.2010 08:00 0.1 C 80 % 1027.5 hPa 0.0 l/m 2.8 km/h (1 Bft) S-SO 0.00 h 58 W/m -3.0 C -0.1 C 5.2 km/h (1 Bft)
14.03.2010 09:00 0.7 C 77 % 1027.8 hPa 0.0 l/m 3.5 km/h (1 Bft) S-SO 0.00 h 99 W/m -2.9 C -0.1 C 6.4 km/h (2 Bft)
14.03.2010 10:00 1.7 C 74 % 1027.8 hPa 0.0 l/m 1.3 km/h (1 Bft) S-SO 0.00 h 118 W/m -2.4 C 1.7 C 3.4 km/h (1 Bft)
14.03.2010 11:00 2.3 C 71 % 1027.6 hPa 0.0 l/m 3.7 km/h (1 Bft) S-SO 0.00 h 141 W/m -2.4 C 1.7 C 6.8 km/h (2 Bft)
14.03.2010 12:00 2.9 C 69 % 1027.4 hPa 0.0 l/m 3.5 km/h (1 Bft) S-SO 0.00 h 149 W/m -2.3 C 2.7 C 6.0 km/h (2 Bft)
14.03.2010 13:00 4.2 C 63 % 1026.6 hPa 0.0 l/m 4.5 km/h (1 Bft) W 0.00 h 221 W/m -2.2 C 3.5 C 7.1 km/h (2 Bft)
14.03.2010 14:00 4.9 C 59 % 1026.0 hPa 0.0 l/m 5.8 km/h (2 Bft) W 0.00 h 193 W/m -2.5 C 3.7 C 9.3 km/h (2 Bft)
14.03.2010 15:00 4.6 C 59 % 1025.9 hPa 0.0 l/m 6.6 km/h (2 Bft) W 0.00 h 131 W/m -2.7 C 3.3 C 10.6 km/h (2 Bft)
14.03.2010 16:00 4.2 C 62 % 1025.8 hPa 0.0 l/m 5.1 km/h (1 Bft) W 0.00 h 78 W/m -2.5 C 3.3 C 8.5 km/h (2 Bft)
14.03.2010 17:00 4.0 C 63 % 1025.9 hPa 0.0 l/m 3.4 km/h (1 Bft) W-NW 0.00 h 28 W/m -2.3 C 3.6 C 5.9 km/h (2 Bft)
14.03.2010 18:00 3.5 C 67 % 1026.2 hPa 0.0 l/m 0.9 km/h (0 Bft) S-SW 0.00 h 6 W/m -2.0 C 3.5 C 2.5 km/h (1 Bft)
14.03.2010 19:00 3.2 C 70 % 1026.7 hPa 0.0 l/m 1.4 km/h (1 Bft) SW 0.00 h 0 W/m -1.7 C 3.2 C 3.7 km/h (1 Bft)
14.03.2010 20:00 3.1 C 72 % 1027.0 hPa 0.0 l/m 2.5 km/h (1 Bft) W 0.00 h 0 W/m -1.5 C 2.7 C 4.9 km/h (1 Bft)
14.03.2010 21:00 2.9 C 73 % 1027.1 hPa 0.0 l/m 2.5 km/h (1 Bft) W-SW 0.00 h 0 W/m -1.4 C 2.6 C 4.8 km/h (1 Bft)
14.03.2010 22:00 2.8 C 74 % 1026.8 hPa 0.0 l/m 2.7 km/h (1 Bft) W 0.00 h 0 W/m -1.4 C 2.4 C 4.9 km/h (1 Bft)
14.03.2010 23:00 2.7 C 73 % 1026.6 hPa 0.0 l/m 1.5 km/h (1 Bft) SW 0.00 h 0 W/m -1.6 C 2.5 C 3.0 km/h (1 Bft)
Min-Datum _ 13.03.10 08.03.10 11.03.10 - 08.03.10 - - - 08.03.10 09.03.10 08.03.10
_ Min-Zeit 04:12 12:55 03:15 - 00:48 - - - 10:47 06:17 07:00
Minimum _ -7.6 C 30 % 1012.5 hPa - 0.0 km/h (0 Bft) - - - -14.4 C -11.8 C 0.0 km/h (0 Bft)
Max-Datum _ 13.03.10 12.03.10 13.03.10 11.03.10 08.03.10 - 08.03.10 12.03.10 13.03.10 13.03.10 09.03.10
_ Max-Zeit 14:35 01:43 20:45 00:14 12:33 - 07:05 13:05 20:43 14:34 17:42
Maximum _ 5.1 C 93 % 1028.0 hPa 0.8 l/m 22.6 km/h
NO (4 Bft)
- 0.02 h 782 W/m -1.2 C 5.1 C 46.9 km/h
O (6 Bft)
Durchschnitt _ -1.2 C 68 % 1019.8 hPa #5.6 l/m 3.4 km/h (1 Bft) O-SO #21:08 h 93 W/m -6.8 C -2.1 C 6.9 km/h (2 Bft)
© Kaiko 2010